Terminal Aerodrome Forecast
Issued by NWS

Home | Current Version | Previous Version | Graphics & Text | Print | Product List | Glossary On
Versions: 1 2 3 4 5 6 7 8 9 10 11
000
FTUS43 KPAH 121120
TAFCGI
TAF
KCGI 121120Z 1212/1312 33014G22KT P6SM BKN045
     FM121400 34015G24KT P6SM SCT060
     FM122000 32011KT P6SM FEW250
     FM122300 31005KT P6SM FEW250
     FM130700 23004KT P6SM FEW250=

USA.gov is the U.S. government's official web portal to all federal, state and local government web resources and services.